createdAt,value
2018-12-21T00:00:21.688Z,96727.55
2018-12-21T00:02:47.795Z,96719.75
2018-12-21T00:05:16.964Z,96707.28
2018-12-21T00:07:42.886Z,96705.05
2018-12-21T00:10:10.785Z,96701.29
2018-12-21T00:12:36.706Z,96701.02
2018-12-21T00:15:06.394Z,96705.74
2018-12-21T00:17:34.747Z,96701.21
2018-12-21T00:20:00.337Z,96704.66
2018-12-21T00:22:26.221Z,96707.24
2018-12-21T00:24:52.095Z,96707.38
2018-12-21T00:27:17.959Z,96710.97
2018-12-21T00:29:43.848Z,96711.74
2018-12-21T00:32:19.008Z,96718.58
2018-12-21T00:34:50.913Z,96717.13
2018-12-21T00:37:23.042Z,96713.64
2018-12-21T00:39:55.088Z,96706.53
2018-12-21T00:42:27.865Z,96702.61
2018-12-21T00:44:55.844Z,96699.12
2018-12-21T00:47:21.752Z,96697.97
2018-12-21T00:49:47.613Z,96699.02
2018-12-21T00:52:13.744Z,96698.93
2018-12-21T00:54:39.631Z,96690.36
2018-12-21T00:57:05.689Z,96686.55
2018-12-21T00:59:31.555Z,96678.03
2018-12-21T01:01:57.496Z,96678.75
2018-12-21T01:04:23.485Z,96674.48
2018-12-21T01:06:49.407Z,96666.03
2018-12-21T01:09:15.290Z,96666.47
2018-12-21T01:11:41.203Z,96658.87
2018-12-21T01:14:07.454Z,96665.76
2018-12-21T01:16:33.385Z,96659.36
2018-12-21T01:18:59.275Z,96654.72
2018-12-21T01:21:25.483Z,96649.70
2018-12-21T01:23:51.505Z,96661.17
2018-12-21T01:26:17.428Z,96653.38
2018-12-21T01:28:43.438Z,96669.95
2018-12-21T01:31:09.495Z,96678.99
2018-12-21T01:33:35.395Z,96687.26
2018-12-21T01:36:02.837Z,96694.86
2018-12-21T01:38:28.733Z,96694.05
2018-12-21T01:40:54.665Z,96698.41
2018-12-21T01:43:20.566Z,96691.52
2018-12-21T01:45:46.471Z,96691.62
2018-12-21T01:48:12.343Z,96693.23
2018-12-21T01:50:38.259Z,96697.63
2018-12-21T01:53:04.168Z,96703.13
2018-12-21T01:55:31.923Z,96690.80
2018-12-21T01:57:58.342Z,96680.86
2018-12-21T02:00:27.789Z,96668.15
2018-12-21T02:02:53.673Z,96661.75
2018-12-21T02:05:21.602Z,96670.39
2018-12-21T02:07:47.507Z,96664.00
2018-12-21T02:10:13.421Z,96668.34
2018-12-21T02:12:39.395Z,96674.65
2018-12-21T02:15:05.368Z,96669.63
2018-12-21T02:17:34.489Z,96662.46
2018-12-21T02:20:00.391Z,96653.05
2018-12-21T02:22:27.266Z,96654.47
2018-12-21T02:24:53.168Z,96647.25
2018-12-21T02:27:22.595Z,96638.22
2018-12-21T02:29:48.523Z,96627.09
2018-12-21T02:32:17.710Z,96629.16
2018-12-21T02:34:43.590Z,96632.64
2018-12-21T02:37:12.645Z,96617.63
2018-12-21T02:39:38.583Z,96623.23
2018-12-21T02:42:06.075Z,96618.84
2018-12-21T02:44:32.010Z,96619.93
2018-12-21T02:46:57.904Z,96625.94
2018-12-21T02:49:24.462Z,96620.98
2018-12-21T02:51:50.401Z,96610.08
2018-12-21T02:54:19.900Z,96606.97
2018-12-21T02:56:45.812Z,96602.57
2018-12-21T02:59:13.619Z,96596.83
2018-12-21T03:01:39.645Z,96603.55
2018-12-21T03:04:07.481Z,96590.59
2018-12-21T03:06:33.368Z,96592.27
2018-12-21T03:09:03.462Z,96581.09
2018-12-21T03:11:29.620Z,96564.78
2018-12-21T03:13:56.981Z,96565.08
2018-12-21T03:16:22.939Z,96560.12
2018-12-21T03:18:51.284Z,96551.31
2018-12-21T03:21:17.190Z,96555.19
2018-12-21T03:23:43.039Z,96543.95
2018-12-21T03:26:08.929Z,96541.64
2018-12-21T03:28:34.858Z,96537.38
2018-12-21T03:31:05.370Z,96520.13
2018-12-21T03:33:31.561Z,96518.02
2018-12-21T03:35:58.288Z,96512.09
2018-12-21T03:38:24.217Z,96505.37
2018-12-21T03:40:54.047Z,96494.25
2018-12-21T03:43:20.087Z,96485.36
2018-12-21T03:45:47.904Z,96479.73
2018-12-21T03:48:13.769Z,96484.39
2018-12-21T03:50:46.567Z,96482.13
2018-12-21T03:53:16.942Z,96481.61
2018-12-21T03:55:43.013Z,96471.86
2018-12-21T03:58:09.055Z,96467.98
2018-12-21T04:00:34.951Z,96460.59
2018-12-21T04:03:00.864Z,96450.11
2018-12-21T04:05:26.801Z,96440.54
2018-12-21T04:07:52.707Z,96439.72
2018-12-21T04:10:18.607Z,96430.19
2018-12-21T04:12:45.124Z,96423.32
2018-12-21T04:15:11.042Z,96427.13
2018-12-21T04:17:38.498Z,96428.89
2018-12-21T04:20:04.569Z,96431.95
2018-12-21T04:22:34.701Z,96432.55
2018-12-21T04:25:01.081Z,96432.90
2018-12-21T04:27:27.295Z,96431.92
2018-12-21T04:29:53.183Z,96440.27
2018-12-21T04:32:21.959Z,96434.81
2018-12-21T04:34:47.973Z,96430.12
2018-12-21T04:37:13.902Z,96431.50
2018-12-21T04:39:39.811Z,96416.28
2018-12-21T04:42:05.722Z,96441.38
2018-12-21T04:44:34.867Z,96435.00
2018-12-21T04:47:00.801Z,96433.55
2018-12-21T04:49:28.578Z,96420.16
2018-12-21T04:51:54.484Z,96422.14
2018-12-21T04:54:24.196Z,96428.33
2018-12-21T04:56:50.115Z,96421.70
2018-12-21T04:59:17.920Z,96407.84
2018-12-21T05:01:43.797Z,96404.72
2018-12-21T05:04:19.777Z,96401.22
2018-12-21T05:06:41.412Z,96405.71
2018-12-21T05:09:07.313Z,96400.00
2018-12-21T05:11:33.214Z,96391.42
2018-12-21T05:13:59.081Z,96395.44
2018-12-21T05:16:24.943Z,96384.27
2018-12-21T05:18:50.942Z,96390.02
2018-12-21T05:21:21.840Z,96379.13
2018-12-21T05:23:47.723Z,96373.64
2018-12-21T05:26:14.366Z,96375.00
2018-12-21T05:28:40.260Z,96380.23
2018-12-21T05:31:09.982Z,96373.96
2018-12-21T05:33:35.862Z,96361.55
2018-12-21T05:36:03.848Z,96364.89
2018-12-21T05:38:29.766Z,96372.51
2018-12-21T05:40:59.038Z,96373.61
2018-12-21T05:43:24.943Z,96379.40
2018-12-21T05:45:52.727Z,96370.70
2018-12-21T05:48:18.660Z,96379.38
2018-12-21T05:50:44.550Z,96372.64
2018-12-21T05:53:10.418Z,96386.27
2018-12-21T05:55:36.484Z,96373.23
2018-12-21T05:58:05.713Z,96364.95
2018-12-21T06:00:31.571Z,96352.30
2018-12-21T06:02:59.460Z,96364.41
2018-12-21T06:05:25.357Z,96357.00
2018-12-21T06:07:54.786Z,96353.11
2018-12-21T06:10:20.705Z,96346.27
2018-12-21T06:12:49.780Z,96342.75
2018-12-21T06:15:15.662Z,96322.20
2018-12-21T06:17:44.013Z,96334.13
2018-12-21T06:20:09.900Z,96337.13
2018-12-21T06:22:39.170Z,96330.02
2018-12-21T06:25:05.184Z,96333.23
2018-12-21T06:27:31.196Z,96314.80
2018-12-21T06:29:57.125Z,96340.92
2018-12-21T06:32:23.031Z,96320.09
2018-12-21T06:34:49.933Z,96298.66
2018-12-21T06:37:15.906Z,96270.69
2018-12-21T06:39:45.593Z,96294.39
2018-12-21T06:42:11.562Z,96296.00
2018-12-21T06:44:39.231Z,96289.84
2018-12-21T06:47:05.140Z,96274.77
2018-12-21T06:49:33.861Z,96275.87
2018-12-21T06:51:59.788Z,96275.21
2018-12-21T06:54:28.807Z,96270.36
2018-12-21T06:56:54.691Z,96275.47
2018-12-21T06:59:23.604Z,96264.55
2018-12-21T07:01:49.500Z,96265.62
2018-12-21T07:04:15.391Z,96249.13
2018-12-21T07:06:41.270Z,96241.68
2018-12-21T07:09:07.163Z,96232.58
2018-12-21T07:11:36.476Z,96220.94
2018-12-21T07:14:02.546Z,96209.78
2018-12-21T07:16:30.033Z,96224.17
2018-12-21T07:18:55.889Z,96200.61
2018-12-21T07:21:25.546Z,96192.48
2018-12-21T07:23:51.478Z,96229.04
2018-12-21T07:26:20.402Z,96193.37
2018-12-21T07:28:46.343Z,96184.32
2018-12-21T07:31:15.401Z,96176.67
2018-12-21T07:33:41.286Z,96194.77
2018-12-21T07:36:09.238Z,96186.23
2018-12-21T07:38:35.281Z,96190.35
2018-12-21T07:41:01.175Z,96183.75
2018-12-21T07:43:27.061Z,96186.70
2018-12-21T07:45:53.047Z,96187.94
2018-12-21T07:48:20.947Z,96170.16
2018-12-21T07:50:46.953Z,96184.27
2018-12-21T07:53:16.635Z,96178.20
2018-12-21T07:55:42.567Z,96196.91
2018-12-21T07:58:10.470Z,96179.71
2018-12-21T08:00:36.345Z,96179.71
2018-12-21T08:03:06.310Z,96210.05
2018-12-21T08:05:32.167Z,96183.08
2018-12-21T08:07:59.979Z,96155.20
2018-12-21T08:10:25.927Z,96176.69
2018-12-21T08:12:55.611Z,96162.41
2018-12-21T08:15:21.518Z,96164.92
2018-12-21T08:17:47.416Z,96167.27
2018-12-21T08:20:13.350Z,96162.64
2018-12-21T08:22:39.267Z,96160.05
2018-12-21T08:25:06.549Z,96157.30
2018-12-21T08:27:32.447Z,96147.81
2018-12-21T08:30:03.957Z,96144.92
2018-12-21T08:32:29.875Z,96135.51
2018-12-21T08:35:00.397Z,96135.10
2018-12-21T08:37:26.657Z,96137.86
2018-12-21T08:39:52.584Z,96130.66
2018-12-21T08:42:18.482Z,96131.65
2018-12-21T08:44:44.651Z,96122.73
2018-12-21T08:47:10.509Z,96122.78
2018-12-21T08:49:40.095Z,96125.34
2018-12-21T08:52:05.966Z,96101.66
2018-12-21T08:54:31.892Z,96105.58
2018-12-21T08:56:57.771Z,96101.92
2018-12-21T08:59:24.175Z,96108.42
2018-12-21T09:01:52.495Z,96074.73
2018-12-21T09:04:18.604Z,96105.99
2018-12-21T09:06:45.804Z,96105.07
2018-12-21T09:09:11.713Z,96103.37
2018-12-21T09:11:40.682Z,96109.83
2018-12-21T09:14:07.235Z,96101.52
2018-12-21T09:16:36.406Z,96101.70
2018-12-21T09:19:02.311Z,96104.30
2018-12-21T09:21:30.250Z,96087.11
2018-12-21T09:24:01.237Z,96081.94
2018-12-21T09:26:24.982Z,96087.88
2018-12-21T09:28:51.914Z,96091.84
2018-12-21T09:31:17.852Z,96090.55
2018-12-21T09:33:43.762Z,96075.58
2018-12-21T09:36:09.654Z,96060.87
2018-12-21T09:38:38.137Z,96053.66
2018-12-21T09:41:04.185Z,96036.95
2018-12-21T09:43:31.693Z,96036.53
2018-12-21T09:48:43.821Z,96035.27
2018-12-21T09:51:09.691Z,96031.41
2018-12-21T09:53:35.570Z,96020.22
2018-12-21T09:56:01.444Z,96034.39
2018-12-21T09:58:27.421Z,96053.18
2018-12-21T10:00:53.335Z,96010.93
2018-12-21T10:03:19.303Z,96004.25
2018-12-21T10:05:45.242Z,96004.83
2018-12-21T10:08:11.135Z,95991.14
2018-12-21T10:10:37.010Z,95993.25
2018-12-21T10:13:03.014Z,95984.38
2018-12-21T10:15:28.970Z,95966.61
2018-12-21T10:17:54.858Z,95961.70
2018-12-21T10:20:20.739Z,95951.85
2018-12-21T10:22:46.675Z,95957.04
2018-12-21T10:25:12.612Z,95949.80
2018-12-21T10:27:38.587Z,95928.01
2018-12-21T10:30:08.479Z,95920.30
2018-12-21T10:32:34.381Z,95915.83
2018-12-21T10:35:01.233Z,95917.76
2018-12-21T10:37:27.260Z,95945.08
2018-12-21T10:39:56.915Z,95912.05
2018-12-21T10:42:22.805Z,95911.06
2018-12-21T10:44:48.754Z,95910.18
2018-12-21T10:47:15.075Z,95903.48
2018-12-21T10:49:41.025Z,95898.20
2018-12-21T10:52:08.134Z,95905.63
2018-12-21T10:54:36.178Z,95907.37
2018-12-21T10:57:02.488Z,95908.63
2018-12-21T10:59:28.384Z,95901.97
2018-12-21T11:01:57.414Z,95891.19
2018-12-21T11:04:23.304Z,95900.98
2018-12-21T11:06:51.163Z,95915.94
2018-12-21T11:09:17.064Z,95885.69
2018-12-21T11:11:45.868Z,95882.10
2018-12-21T11:14:11.801Z,95881.28
2018-12-21T11:16:41.594Z,95876.90
2018-12-21T11:19:07.509Z,95874.73
2018-12-21T11:21:33.383Z,95873.05
2018-12-21T11:23:59.311Z,95868.23
2018-12-21T11:26:28.835Z,95809.45
2018-12-21T11:28:55.170Z,95880.38
2018-12-21T11:31:21.043Z,95872.95
2018-12-21T11:33:47.042Z,95869.63
2018-12-21T11:36:12.942Z,95875.86
2018-12-21T11:38:42.775Z,95875.92
2018-12-21T11:41:08.631Z,95879.45
2018-12-21T11:43:37.793Z,95856.45
2018-12-21T11:46:03.685Z,95868.39
2018-12-21T11:48:31.527Z,95868.56
2018-12-21T11:50:57.443Z,95880.83
2018-12-21T11:53:26.811Z,95866.00
2018-12-21T11:55:52.690Z,95872.59
2018-12-21T11:58:18.670Z,95863.59
2018-12-21T12:00:44.539Z,95859.92
2018-12-21T12:03:10.451Z,95855.67
2018-12-21T12:05:37.828Z,95865.08
2018-12-21T12:08:03.744Z,95861.45
2018-12-21T12:10:33.663Z,95602.07
2018-12-21T12:12:59.612Z,95865.48
2018-12-21T12:15:28.638Z,95867.36
2018-12-21T12:17:54.898Z,95869.59
2018-12-21T12:20:22.258Z,95861.48
2018-12-21T12:22:48.209Z,95855.62
2018-12-21T12:25:17.845Z,95858.34
2018-12-21T12:27:43.764Z,95860.84
2018-12-21T12:30:11.372Z,95851.40
2018-12-21T12:32:37.266Z,95848.80
2018-12-21T12:35:03.994Z,95846.11
2018-12-21T12:37:29.897Z,95861.83
2018-12-21T12:39:55.783Z,95851.24
2018-12-21T12:42:23.119Z,95860.88
2018-12-21T12:44:49.012Z,95846.23
2018-12-21T12:47:17.787Z,95845.20
2018-12-21T12:49:43.680Z,95846.41
2018-12-21T12:52:13.564Z,95840.39
2018-12-21T12:54:39.436Z,95841.56
2018-12-21T12:57:07.268Z,95849.81
2018-12-21T12:59:33.157Z,95841.66
2018-12-21T13:02:01.953Z,95868.84
2018-12-21T13:04:27.816Z,95853.84
2018-12-21T13:06:56.475Z,95856.20
2018-12-21T13:09:24.263Z,95842.02
2018-12-21T13:11:50.176Z,95848.41
2018-12-21T13:14:16.688Z,95846.66
2018-12-21T13:16:42.706Z,95863.80
2018-12-21T13:19:08.752Z,95833.38
2018-12-21T13:21:34.795Z,95866.94
2018-12-21T13:24:04.472Z,95867.13
2018-12-21T13:26:30.916Z,95872.02
2018-12-21T13:28:58.314Z,95857.97
2018-12-21T13:31:25.147Z,95858.16
2018-12-21T13:33:52.975Z,95859.94
2018-12-21T13:36:18.864Z,95863.93
2018-12-21T13:38:48.549Z,95873.23
2018-12-21T13:41:14.428Z,95865.81
2018-12-21T13:43:42.247Z,95870.73
2018-12-21T13:46:08.538Z,95879.91
2018-12-21T13:48:34.501Z,95888.23
2018-12-21T13:51:00.396Z,95862.95
2018-12-21T13:53:26.273Z,95865.81
2018-12-21T13:55:53.873Z,95867.83
2018-12-21T13:58:19.777Z,95869.48
2018-12-21T14:00:49.637Z,95601.83
2018-12-21T14:03:15.664Z,95892.80
2018-12-21T14:05:43.289Z,95899.55
2018-12-21T14:08:09.175Z,95893.68
2018-12-21T14:10:37.424Z,95891.97
2018-12-21T14:13:03.362Z,95900.16
2018-12-21T14:15:32.312Z,95876.82
2018-12-21T14:17:58.235Z,95888.36
2018-12-21T14:20:26.930Z,95882.70
2018-12-21T14:22:52.849Z,95871.50
2018-12-21T14:25:18.719Z,95876.64
2018-12-21T14:27:44.699Z,95870.73
2018-12-21T14:30:10.628Z,95877.91
2018-12-21T14:32:38.920Z,95893.84
2018-12-21T14:35:04.833Z,95885.18
2018-12-21T14:37:33.547Z,95891.45
2018-12-21T14:39:59.427Z,95895.70
2018-12-21T14:42:29.022Z,95901.88
2018-12-21T14:44:54.924Z,95894.44
2018-12-21T14:47:24.015Z,95897.88
2018-12-21T14:49:49.984Z,95890.34
2018-12-21T14:52:17.799Z,95903.01
2018-12-21T14:54:43.693Z,95910.38
2018-12-21T14:57:13.529Z,95907.91
2018-12-21T14:59:39.470Z,95911.48
2018-12-21T15:02:05.370Z,95924.71
2018-12-21T15:04:31.326Z,95921.59
2018-12-21T15:06:57.320Z,95924.70
2018-12-21T15:09:26.289Z,95932.76
2018-12-21T15:11:52.186Z,95927.30
2018-12-21T15:14:19.889Z,95922.10
2018-12-21T15:16:46.000Z,95936.05
2018-12-21T15:19:13.677Z,95943.61
2018-12-21T15:21:39.603Z,95939.36
2018-12-21T15:24:08.752Z,95947.16
2018-12-21T15:26:34.656Z,95941.95
2018-12-21T15:29:04.074Z,95952.95
2018-12-21T15:31:30.007Z,95955.58
2018-12-21T15:33:57.930Z,95948.13
2018-12-21T15:36:23.847Z,95956.55
2018-12-21T15:38:51.493Z,95951.27
2018-12-21T15:41:17.425Z,95949.52
2018-12-21T15:43:43.310Z,95954.75
2018-12-21T15:46:09.763Z,95952.73
2018-12-21T15:48:36.003Z,95960.47
2018-12-21T15:51:04.732Z,95945.21
2018-12-21T15:53:30.613Z,95944.63
2018-12-21T15:56:00.149Z,95956.69
2018-12-21T15:58:28.311Z,95960.13
2018-12-21T16:00:54.759Z,95944.88
2018-12-21T16:03:20.652Z,95953.78
2018-12-21T16:05:49.879Z,95944.34
2018-12-21T16:08:15.971Z,95951.22
2018-12-21T16:10:43.767Z,95939.17
2018-12-21T16:13:09.650Z,95953.28
2018-12-21T16:15:35.566Z,95971.63
2018-12-21T16:18:01.515Z,95960.27
2018-12-21T16:20:27.407Z,95958.26
2018-12-21T16:22:56.429Z,95966.91
2018-12-21T16:25:24.802Z,95974.38
2018-12-21T16:27:50.984Z,95976.75
2018-12-21T16:30:16.865Z,95989.78
2018-12-21T16:32:46.020Z,95976.81
2018-12-21T16:35:12.056Z,95993.05
2018-12-21T16:37:39.489Z,95980.33
2018-12-21T16:40:06.708Z,95986.48
2018-12-21T16:42:33.638Z,95982.02
2018-12-21T16:44:59.738Z,95981.28
2018-12-21T16:47:28.695Z,95998.20
2018-12-21T16:49:54.626Z,96002.77
2018-12-21T16:52:20.541Z,96003.23
2018-12-21T16:54:46.635Z,96012.61
2018-12-21T16:57:12.647Z,96017.91
2018-12-21T16:59:42.176Z,96040.41
2018-12-21T17:02:08.059Z,96019.09
2018-12-21T17:04:35.644Z,96029.87
2018-12-21T17:07:03.932Z,96028.33
2018-12-21T17:09:29.936Z,96025.02
2018-12-21T17:11:56.775Z,96028.31
2018-12-21T17:14:24.291Z,96019.35
2018-12-21T17:16:55.972Z,96018.74
2018-12-21T17:19:22.509Z,96024.30
2018-12-21T17:21:48.454Z,96028.21
2018-12-21T17:24:14.435Z,96028.31
2018-12-21T17:26:40.375Z,96045.67
2018-12-21T17:29:06.257Z,96047.11
2018-12-21T17:31:32.168Z,96048.17
2018-12-21T17:33:58.069Z,96043.33
2018-12-21T17:36:25.854Z,96058.36
2018-12-21T17:38:51.785Z,96054.09
2018-12-21T17:41:20.874Z,96065.81
2018-12-21T17:43:46.762Z,96069.84
2018-12-21T17:46:16.145Z,96066.05
2018-12-21T17:48:42.072Z,96069.62
2018-12-21T17:51:09.736Z,96067.37
2018-12-21T17:53:37.316Z,96072.04
2018-12-21T17:56:04.466Z,96081.88
2018-12-21T17:58:30.361Z,96089.60
2018-12-21T18:00:59.181Z,96092.66
2018-12-21T18:03:25.345Z,96095.16
2018-12-21T18:05:58.518Z,96086.20
2018-12-21T18:08:27.124Z,96099.78
2018-12-21T18:10:53.189Z,96093.36
2018-12-21T18:13:19.359Z,96098.44
2018-12-21T18:15:45.356Z,96099.38
2018-12-21T18:18:11.288Z,96104.20
2018-12-21T18:20:37.198Z,96099.61
2018-12-21T18:23:05.561Z,96109.80
2018-12-21T18:25:31.450Z,96122.82
2018-12-21T18:27:57.448Z,96119.70
2018-12-21T18:30:23.663Z,96107.98
2018-12-21T18:32:49.560Z,96043.90
2018-12-21T18:35:15.435Z,96125.37
2018-12-21T18:37:45.521Z,96125.98
2018-12-21T18:40:11.601Z,96128.10
2018-12-21T18:42:37.551Z,96123.25
2018-12-21T18:45:06.296Z,96122.77
2018-12-21T18:47:32.218Z,96107.73
2018-12-21T18:49:58.131Z,96119.80
2018-12-21T18:52:24.051Z,96111.53
2018-12-21T18:54:51.465Z,96108.22
2018-12-21T18:57:17.653Z,96112.48
2018-12-21T18:59:47.261Z,96113.88
2018-12-21T19:02:13.198Z,96115.77
2018-12-21T19:04:40.820Z,96113.63
2018-12-21T19:07:06.689Z,96095.50
2018-12-21T19:09:35.685Z,96110.02
2018-12-21T19:12:01.652Z,96116.36
2018-12-21T19:14:30.604Z,96110.12
2018-12-21T19:16:56.510Z,96107.28
2018-12-21T19:19:22.388Z,96105.22
2018-12-21T19:21:48.351Z,96106.17
2018-12-21T19:24:14.422Z,96110.71
2018-12-21T19:26:42.331Z,96106.33
2018-12-21T19:29:08.233Z,96113.03
2018-12-21T19:31:38.006Z,96110.82
2018-12-21T19:34:03.936Z,96115.44
2018-12-21T19:36:30.801Z,96126.19
2018-12-21T19:38:56.683Z,96119.45
2018-12-21T19:41:25.714Z,96118.14
2018-12-21T19:43:51.917Z,96125.50
2018-12-21T19:46:21.035Z,96127.61
2018-12-21T19:48:46.990Z,96134.61
2018-12-21T19:51:16.801Z,96142.78
2018-12-21T19:53:42.840Z,96146.07
2018-12-21T19:56:11.297Z,96142.62
2018-12-21T19:58:37.197Z,96162.50
2018-12-21T20:01:03.120Z,96148.19
2018-12-21T20:03:29.188Z,96154.70
2018-12-21T20:05:55.362Z,96144.05
2018-12-21T20:08:22.243Z,96137.28
2018-12-21T20:10:48.155Z,96126.97
2018-12-21T20:13:17.967Z,96143.98
2018-12-21T20:15:43.974Z,96130.97
2018-12-21T20:18:10.791Z,96128.95
2018-12-21T20:20:36.724Z,96123.13
2018-12-21T20:23:05.988Z,96082.24
2018-12-21T20:25:32.171Z,96124.53
2018-12-21T20:28:02.004Z,96124.44
2018-12-21T20:30:28.157Z,96128.56
2018-12-21T20:32:54.072Z,96117.31
2018-12-21T20:35:20.111Z,96116.85
2018-12-21T20:37:46.201Z,96117.08
2018-12-21T20:40:12.746Z,96109.50
2018-12-21T20:42:38.678Z,96115.48
2018-12-21T20:45:09.813Z,96117.05
2018-12-21T20:47:35.734Z,96119.03
2018-12-21T20:50:03.158Z,96123.52
2018-12-21T20:52:30.278Z,96118.09
2018-12-21T20:54:56.272Z,96123.10
2018-12-21T20:57:22.306Z,96120.01
2018-12-21T20:59:51.817Z,96125.73
2018-12-21T21:02:17.754Z,96111.16
2018-12-21T21:04:47.401Z,96108.91
2018-12-21T21:07:13.316Z,96109.86
2018-12-21T21:09:39.204Z,96112.69
2018-12-21T21:12:05.346Z,96117.38
2018-12-21T21:14:31.233Z,96116.75
2018-12-21T21:16:58.231Z,96105.11
2018-12-21T21:19:24.540Z,96106.37
2018-12-21T21:21:53.940Z,96108.75
2018-12-21T21:24:19.827Z,96118.12
2018-12-21T21:26:46.687Z,96123.64
2018-12-21T21:29:13.277Z,96128.69
2018-12-21T21:31:43.211Z,96133.03
2018-12-21T21:34:09.124Z,96138.66
2018-12-21T21:36:37.110Z,96141.45
2018-12-21T21:39:04.700Z,96148.53
2018-12-21T21:41:30.869Z,96145.21
2018-12-21T21:43:56.816Z,96149.64
2018-12-21T21:46:22.694Z,96144.22
2018-12-21T21:48:48.565Z,96150.50
2018-12-21T21:51:14.473Z,96080.38
2018-12-21T21:53:42.944Z,96145.16
2018-12-21T21:56:08.931Z,96147.59
2018-12-21T21:58:37.720Z,96154.27
2018-12-21T22:01:03.560Z,96152.37
2018-12-21T22:03:33.387Z,96153.85
2018-12-21T22:05:59.482Z,96154.70
2018-12-21T22:08:27.356Z,96163.98
2018-12-21T22:11:01.515Z,96171.20
2018-12-21T22:13:22.468Z,96181.16
2018-12-21T22:15:48.421Z,96180.27
2018-12-21T22:18:16.174Z,96183.50
2018-12-21T22:20:42.335Z,96178.06
2018-12-21T22:23:08.355Z,96179.37
2018-12-21T22:25:34.241Z,96178.06
2018-12-21T22:28:00.159Z,96179.18
2018-12-21T22:30:29.036Z,96176.77
2018-12-21T22:32:54.899Z,96174.16
2018-12-21T22:35:22.786Z,96167.56
2018-12-21T22:37:48.720Z,96178.82
2018-12-21T22:40:18.317Z,96179.08
2018-12-21T22:42:44.228Z,96182.08
2018-12-21T22:45:12.120Z,96181.72
2018-12-21T22:47:38.752Z,96187.88
2018-12-21T22:50:08.184Z,96185.05
2018-12-21T22:52:34.160Z,96185.14
2018-12-21T22:55:01.415Z,96181.86
2018-12-21T22:57:27.368Z,96177.95
2018-12-21T22:59:58.431Z,96188.05
2018-12-21T23:02:24.919Z,96190.55
2018-12-21T23:04:50.879Z,96191.50
2018-12-21T23:07:16.753Z,96178.59
2018-12-21T23:09:42.644Z,96187.12
2018-12-21T23:12:08.559Z,96184.64
2018-12-21T23:14:34.418Z,96135.27
2018-12-21T23:17:04.579Z,96181.30
2018-12-21T23:19:30.519Z,96181.20
2018-12-21T23:21:57.371Z,96180.22
2018-12-21T23:24:23.242Z,96186.55
2018-12-21T23:26:51.992Z,96186.41
2018-12-21T23:29:17.827Z,96187.04
2018-12-21T23:31:46.057Z,96191.76
2018-12-21T23:34:11.960Z,96194.62
2018-12-21T23:36:37.821Z,96190.82
2018-12-21T23:39:05.379Z,96187.31
2018-12-21T23:41:31.270Z,96181.16
2018-12-21T23:43:58.673Z,96183.02
2018-12-21T23:46:24.797Z,96183.64
2018-12-21T23:48:53.625Z,96177.89
2018-12-21T23:51:19.539Z,96182.73
2018-12-21T23:53:49.437Z,96187.81
2018-12-21T23:56:15.288Z,96187.63
2018-12-21T23:58:44.838Z,96188.92
